Terminal Aerodrome Forecast
Issued by NWS Houston/Galveston TX

Home | Current Version | Previous Version | Text Only | Print | Product List | Glossary On
Versions: 1 2 3 4 5 6 7 8 9 10 11 12 13 14 15 16 17 18 19 20 21 22 23 24 25 26 27 28 29
000
FTUS44 KHGX 300338 AAA
TAFHOU
TAF AMD
KHOU 300338Z 3004/3024 16005KT P6SM FEW025 SCT250
     FM301000 VRB04KT P6SM FEW015 BKN150
     FM301500 14005KT P6SM BKN025 BKN150
     FM301700 15007KT P6SM BKN040 BKN150
     FM302100 14008KT P6SM SCT040=

USA.gov is the U.S. government's official web portal to all federal, state and local government web resources and services.